Hlavní strana
METAR-TAF:

METAR-TAF

Letiště :

Samara, Rusko

zeměpisná šířka: 53-12N, zeměpisná délka: 050-09E, výška: 44 m

Aktuální stav počasí

Zpráva byla vytvořena před 20 minutami, v 00:30 UTC
Západní vítr 4 kt, proměnlivý mezi západojihozápadním a západoseverozápadním
Teplota 9°C
Vlhkost vzduchu 81%
Tlak 1014 hPa
Viditelnost 10 km a více
Polojasno ve výšce 3300 ft

METAR: UWWW 270030Z 26002MPS 240V300 9999 SCT033 09/06 Q1014 R33/190056 NOSIG RMK QFE750/1000

Čas: 04:50 (00:50 UTC)

Předpověď počasí

Zpráva byla vytvořena před 1 hodinou a 57 minutami, v 22:53 UTC
Předpověď platná od 27 v 00 UTC do 27 v 24 UTC
Západní vítr 6 kt s nárazy do 17 kt
Viditelnost: 6000 m
Oblačno až skoro zataženo ve výšce 1600 ft
Dočasný
od 27 v 00 UTC do 27 v 06 UTC
Viditelnost: 0300 m
ve výšce 200 ft
mlha
Změna
od 27 v 16 UTC do 27 v 18 UTC
Východojihovýchodní vítr 6 kt s nárazy do 17 kt

TAF: UWWW 262253Z 2700/2724 26003G09MPS 6000 BKN016 TX12/2711Z TN08/2702Z TEMPO 2700/2706 0300 FG VV002 BECMG 2716/2718 12003G09MPS

Stav a předpovědi počasí z více než 4 000 letišť (zprávy METAR a TAF).

Červené a žluté tečky na mapě představují dostupné meteorologické stanice.

Když kurzor umístíte na tečku, zobrazí se název stanice.

Pak kliknutím zobrazíte stav a předpověď počasí.

Chcete-li změnit mapu, kliknutím na zelené tlačítko se znaménkem +mapu přiblížíte, kliknutím na zelené tlačítko se znaménkem – mapu oddálíte a kliknutím na zelené šipky přejdete na sousední mapy.


METAR-TAF: